sensor_id;sensor_type;location;lat;lon;timestamp;pressure;altitude;pressure_sealevel;temperature;humidity
52625;BME280;38519;52.540;13.410;2023-04-08T00:01:41;101150.00;;;4.25;100.00
52625;BME280;38519;52.540;13.410;2023-04-08T00:04:06;101155.19;;;4.25;100.00
52625;BME280;38519;52.540;13.410;2023-04-08T00:06:33;101158.66;;;4.25;100.00
52625;BME280;38519;52.540;13.410;2023-04-08T00:08:58;101158.66;;;4.25;100.00
52625;BME280;38519;52.540;13.410;2023-04-08T00:11:24;101153.50;;;4.25;100.00
52625;BME280;38519;52.540;13.410;2023-04-08T00:13:49;101163.09;;;4.26;100.00
52625;BME280;38519;52.540;13.410;2023-04-08T00:16:14;101164.00;;;4.27;100.00
52625;BME280;38519;52.540;13.410;2023-04-08T00:18:40;101164.78;;;4.26;100.00
52625;BME280;38519;52.540;13.410;2023-04-08T00:21:05;101163.09;;;4.26;100.00
52625;BME280;38519;52.540;13.410;2023-04-08T00:23:30;101156.25;;;4.27;100.00
52625;BME280;38519;52.540;13.410;2023-04-08T00:25:56;101168.25;;;4.26;100.00
52625;BME280;38519;52.540;13.410;2023-04-08T00:28:21;101160.19;;;4.23;100.00
52625;BME280;38519;52.540;13.410;2023-04-08T00:30:46;101157.75;;;4.25;100.00
52625;BME280;38519;52.540;13.410;2023-04-08T00:33:11;101155.19;;;4.25;100.00
52625;BME280;38519;52.540;13.410;2023-04-08T00:35:37;101164.13;;;4.19;100.00
52625;BME280;38519;52.540;13.410;2023-04-08T00:38:03;101161.97;;;4.15;100.00
52625;BME280;38519;52.540;13.410;2023-04-08T00:40:31;101168.69;;;4.22;100.00
52625;BME280;38519;52.540;13.410;2023-04-08T00:42:57;101158.34;;;4.22;100.00
52625;BME280;38519;52.540;13.410;2023-04-08T00:45:22;101159.53;;;4.17;100.00
52625;BME280;38519;52.540;13.410;2023-04-08T00:47:47;101156.94;;;4.17;100.00
52625;BME280;38519;52.540;13.410;2023-04-08T00:50:16;101158.22;;;4.21;100.00
52625;BME280;38519;52.540;13.410;2023-04-08T00:52:42;101160.94;;;4.22;100.00
52625;BME280;38519;52.540;13.410;2023-04-08T00:55:07;101157.28;;;4.20;100.00
52625;BME280;38519;52.540;13.410;2023-04-08T00:57:32;101151.19;;;4.19;100.00
52625;BME280;38519;52.540;13.410;2023-04-08T00:59:58;101148.78;;;4.21;100.00
52625;BME280;38519;52.540;13.410;2023-04-08T01:04:59;101158.34;;;4.22;100.00
52625;BME280;38519;52.540;13.410;2023-04-08T01:09:52;101159.28;;;4.23;100.00
52625;BME280;38519;52.540;13.410;2023-04-08T01:12:28;101162.78;;;4.23;100.00
52625;BME280;38519;52.540;13.410;2023-04-08T01:15:15;101161.88;;;4.23;100.00
52625;BME280;38519;52.540;13.410;2023-04-08T01:17:40;101165.34;;;4.23;100.00
52625;BME280;38519;52.540;13.410;2023-04-08T01:20:06;101168.25;;;4.26;100.00
52625;BME280;38519;52.540;13.410;2023-04-08T01:25:16;101170.44;;;4.30;100.00
52625;BME280;38519;52.540;13.410;2023-04-08T01:27:42;101173.75;;;4.29;100.00
52625;BME280;38519;52.540;13.410;2023-04-08T01:30:08;101174.94;;;4.24;100.00
52625;BME280;38519;52.540;13.410;2023-04-08T01:32:34;101179.03;;;4.22;100.00
52625;BME280;38519;52.540;13.410;2023-04-08T01:35:01;101171.56;;;4.16;100.00
52625;BME280;38519;52.540;13.410;2023-04-08T01:37:27;101172.63;;;4.18;100.00
52625;BME280;38519;52.540;13.410;2023-04-08T01:39:52;101171.19;;;4.29;100.00
52625;BME280;38519;52.540;13.410;2023-04-08T01:42:18;101174.66;;;4.30;100.00
52625;BME280;38519;52.540;13.410;2023-04-08T01:44:44;101170.28;;;4.29;100.00
52625;BME280;38519;52.540;13.410;2023-04-08T01:47:10;101177.09;;;4.28;100.00
52625;BME280;38519;52.540;13.410;2023-04-08T01:49:37;101188.69;;;4.32;100.00
52625;BME280;38519;52.540;13.410;2023-04-08T01:52:03;101184.59;;;4.34;100.00
52625;BME280;38519;52.540;13.410;2023-04-08T01:54:29;101183.94;;;4.28;100.00
52625;BME280;38519;52.540;13.410;2023-04-08T01:56:55;101174.94;;;4.24;100.00
52625;BME280;38519;52.540;13.410;2023-04-08T01:59:21;101174.09;;;4.32;100.00
52625;BME280;38519;52.540;13.410;2023-04-08T02:01:48;101174.25;;;4.34;100.00
52625;BME280;38519;52.540;13.410;2023-04-08T02:04:15;101171.66;;;4.34;100.00
52625;BME280;38519;52.540;13.410;2023-04-08T02:06:40;101174.50;;;4.28;100.00
52625;BME280;38519;52.540;13.410;2023-04-08T02:09:05;101175.28;;;4.27;100.00
52625;BME280;38519;52.540;13.410;2023-04-08T02:11:31;101181.19;;;4.26;100.00
52625;BME280;38519;52.540;13.410;2023-04-08T02:13:57;101185.63;;;4.27;100.00
52625;BME280;38519;52.540;13.410;2023-04-08T02:16:58;101191.84;;;4.29;100.00
52625;BME280;38519;52.540;13.410;2023-04-08T02:19:17;101192.19;;;4.32;100.00
52625;BME280;38519;52.540;13.410;2023-04-08T02:21:47;101197.34;;;4.32;100.00
52625;BME280;38519;52.540;13.410;2023-04-08T02:24:14;101199.03;;;4.32;100.00
52625;BME280;38519;52.540;13.410;2023-04-08T02:26:40;101192.34;;;4.34;100.00
52625;BME280;38519;52.540;13.410;2023-04-08T02:29:07;101202.06;;;4.36;100.00
52625;BME280;38519;52.540;13.410;2023-04-08T02:31:35;101198.75;;;4.37;100.00
52625;BME280;38519;52.540;13.410;2023-04-08T02:34:02;101198.59;;;4.36;100.00
52625;BME280;38519;52.540;13.410;2023-04-08T02:36:29;101203.75;;;4.36;100.00
52625;BME280;38519;52.540;13.410;2023-04-08T02:38:56;101199.94;;;4.32;100.00
52625;BME280;38519;52.540;13.410;2023-04-08T02:41:21;101200.09;;;4.34;100.00
52625;BME280;38519;52.540;13.410;2023-04-08T02:43:46;101210.00;;;4.38;100.00
52625;BME280;38519;52.540;13.410;2023-04-08T02:46:12;101206.66;;;4.39;100.00
52625;BME280;38519;52.540;13.410;2023-04-08T02:48:37;101204.97;;;4.40;100.00
52625;BME280;38519;52.540;13.410;2023-04-08T02:51:02;101212.41;;;4.36;100.00
52625;BME280;38519;52.540;13.410;2023-04-08T02:53:28;101206.94;;;4.33;100.00
52625;BME280;38519;52.540;13.410;2023-04-08T02:55:53;101211.19;;;4.33;100.00
52625;BME280;38519;52.540;13.410;2023-04-08T02:58:18;101212.03;;;4.25;100.00
52625;BME280;38519;52.540;13.410;2023-04-08T03:00:43;101214.09;;;4.36;100.00
52625;BME280;38519;52.540;13.410;2023-04-08T03:03:09;101216.09;;;4.38;100.00
52625;BME280;38519;52.540;13.410;2023-04-08T03:05:35;101217.75;;;4.38;100.00
52625;BME280;38519;52.540;13.410;2023-04-08T03:08:00;101217.13;;;4.32;100.00
52625;BME280;38519;52.540;13.410;2023-04-08T03:10:25;101215.44;;;4.32;100.00
52625;BME280;38519;52.540;13.410;2023-04-08T03:12:51;101220.16;;;4.36;100.00
52625;BME280;38519;52.540;13.410;2023-04-08T03:15:16;101219.25;;;4.36;100.00
52625;BME280;38519;52.540;13.410;2023-04-08T03:17:41;101224.09;;;4.33;100.00
52625;BME280;38519;52.540;13.410;2023-04-08T03:20:07;101223.94;;;4.31;100.00
52625;BME280;38519;52.540;13.410;2023-04-08T03:22:32;101227.63;;;4.33;100.00
52625;BME280;38519;52.540;13.410;2023-04-08T03:24:58;101222.31;;;4.32;100.00
52625;BME280;38519;52.540;13.410;2023-04-08T03:27:23;101219.56;;;4.30;100.00
52625;BME280;38519;52.540;13.410;2023-04-08T03:29:48;101226.38;;;4.30;100.00
52625;BME280;38519;52.540;13.410;2023-04-08T03:32:14;101233.38;;;4.31;100.00
52625;BME280;38519;52.540;13.410;2023-04-08T03:34:39;101238.38;;;4.29;100.00
52625;BME280;38519;52.540;13.410;2023-04-08T03:37:05;101239.47;;;4.31;100.00
52625;BME280;38519;52.540;13.410;2023-04-08T03:39:30;101238.56;;;4.31;100.00
52625;BME280;38519;52.540;13.410;2023-04-08T03:41:55;101234.44;;;4.33;100.00
52625;BME280;38519;52.540;13.410;2023-04-08T03:44:21;101243.44;;;4.36;100.00
52625;BME280;38519;52.540;13.410;2023-04-08T03:46:46;101239.78;;;4.34;100.00
52625;BME280;38519;52.540;13.410;2023-04-08T03:49:11;101253.50;;;4.33;100.00
52625;BME280;38519;52.540;13.410;2023-04-08T03:51:38;101246.03;;;4.36;100.00
52625;BME280;38519;52.540;13.410;2023-04-08T03:54:03;101239.78;;;4.34;100.00
52625;BME280;38519;52.540;13.410;2023-04-08T03:56:28;101255.59;;;4.29;100.00
52625;BME280;38519;52.540;13.410;2023-04-08T03:58:53;101244.88;;;4.42;100.00
52625;BME280;38519;52.540;13.410;2023-04-08T04:01:19;101251.28;;;4.45;100.00
52625;BME280;38519;52.540;13.410;2023-04-08T04:03:44;101252.94;;;4.45;100.00
52625;BME280;38519;52.540;13.410;2023-04-08T04:06:09;101260.72;;;4.45;100.00
52625;BME280;38519;52.540;13.410;2023-04-08T04:08:35;101261.13;;;4.41;100.00
52625;BME280;38519;52.540;13.410;2023-04-08T04:11:00;101261.00;;;4.48;100.00
52625;BME280;38519;52.540;13.410;2023-04-08T04:13:25;101262.53;;;4.46;100.00
52625;BME280;38519;52.540;13.410;2023-04-08T04:15:50;101267.81;;;4.38;100.00
52625;BME280;38519;52.540;13.410;2023-04-08T04:18:16;101265.22;;;4.38;100.00
52625;BME280;38519;52.540;13.410;2023-04-08T04:20:41;101267.03;;;4.40;100.00
52625;BME280;38519;52.540;13.410;2023-04-08T04:23:07;101274.31;;;4.35;100.00
52625;BME280;38519;52.540;13.410;2023-04-08T04:25:32;101280.81;;;4.31;100.00
52625;BME280;38519;52.540;13.410;2023-04-08T04:27:57;101281.94;;;4.33;100.00
52625;BME280;38519;52.540;13.410;2023-04-08T04:30:23;101282.22;;;4.36;100.00
52625;BME280;38519;52.540;13.410;2023-04-08T04:32:48;101279.97;;;4.40;100.00
52625;BME280;38519;52.540;13.410;2023-04-08T04:35:13;101280.75;;;4.38;100.00
52625;BME280;38519;52.540;13.410;2023-04-08T04:37:38;101279.63;;;4.36;100.00
52625;BME280;38519;52.540;13.410;2023-04-08T04:40:04;101281.81;;;4.41;100.00
52625;BME280;38519;52.540;13.410;2023-04-08T04:42:30;101286.81;;;4.39;100.00
52625;BME280;38519;52.540;13.410;2023-04-08T04:44:55;101300.31;;;4.36;100.00
52625;BME280;38519;52.540;13.410;2023-04-08T04:47:20;101296.59;;;4.42;100.00
52625;BME280;38519;52.540;13.410;2023-04-08T04:49:46;101299.75;;;4.39;100.00
52625;BME280;38519;52.540;13.410;2023-04-08T04:52:11;101304.91;;;4.39;100.00
52625;BME280;38519;52.540;13.410;2023-04-08T04:54:36;101297.31;;;4.41;100.00
52625;BME280;38519;52.540;13.410;2023-04-08T04:57:02;101305.78;;;4.31;100.00
52625;BME280;38519;52.540;13.410;2023-04-08T04:59:27;101307.66;;;4.41;100.00
52625;BME280;38519;52.540;13.410;2023-04-08T05:01:52;101310.41;;;4.42;100.00
52625;BME280;38519;52.540;13.410;2023-04-08T05:04:17;101315.25;;;4.39;100.00
52625;BME280;38519;52.540;13.410;2023-04-08T05:06:43;101313.41;;;4.38;100.00
52625;BME280;38519;52.540;13.410;2023-04-08T05:09:08;101311.00;;;4.40;100.00
52625;BME280;38519;52.540;13.410;2023-04-08T05:11:33;101311.78;;;4.38;100.00
52625;BME280;38519;52.540;13.410;2023-04-08T05:13:58;101316.16;;;4.40;100.00
52625;BME280;38519;52.540;13.410;2023-04-08T05:16:24;101323.50;;;4.44;100.00
52625;BME280;38519;52.540;13.410;2023-04-08T05:18:49;101315.91;;;4.45;100.00
52625;BME280;38519;52.540;13.410;2023-04-08T05:21:15;101322.94;;;4.46;100.00
52625;BME280;38519;52.540;13.410;2023-04-08T05:23:40;101326.44;;;4.47;100.00
52625;BME280;38519;52.540;13.410;2023-04-08T05:26:06;101336.94;;;4.48;100.00
52625;BME280;38519;52.540;13.410;2023-04-08T05:28:31;101334.50;;;4.50;100.00
52625;BME280;38519;52.540;13.410;2023-04-08T05:30:56;101323.22;;;4.49;100.00
52625;BME280;38519;52.540;13.410;2023-04-08T05:33:21;101323.88;;;4.55;100.00
52625;BME280;38519;52.540;13.410;2023-04-08T05:35:46;101334.00;;;4.61;100.00
52625;BME280;38519;52.540;13.410;2023-04-08T05:38:12;101340.69;;;4.59;100.00
52625;BME280;38519;52.540;13.410;2023-04-08T05:40:37;101346.75;;;4.60;100.00
52625;BME280;38519;52.540;13.410;2023-04-08T05:43:02;101351.66;;;4.65;100.00
52625;BME280;38519;52.540;13.410;2023-04-08T05:45:29;101349.69;;;4.63;100.00
52625;BME280;38519;52.540;13.410;2023-04-08T05:47:54;101364.41;;;4.64;100.00
52625;BME280;38519;52.540;13.410;2023-04-08T05:50:19;101369.44;;;4.62;100.00
52625;BME280;38519;52.540;13.410;2023-04-08T05:52:44;101373.13;;;4.64;100.00
52625;BME280;38519;52.540;13.410;2023-04-08T05:55:10;101373.13;;;4.64;100.00
52625;BME280;38519;52.540;13.410;2023-04-08T05:57:36;101373.38;;;4.59;100.00
52625;BME280;38519;52.540;13.410;2023-04-08T06:00:02;101370.56;;;4.73;100.00
52625;BME280;38519;52.540;13.410;2023-04-08T06:02:27;101367.41;;;4.76;100.00
52625;BME280;38519;52.540;13.410;2023-04-08T06:04:52;101367.09;;;4.72;100.00
52625;BME280;38519;52.540;13.410;2023-04-08T06:07:17;101373.34;;;4.74;100.00
52625;BME280;38519;52.540;13.410;2023-04-08T06:09:43;101370.50;;;4.80;100.00
52625;BME280;38519;52.540;13.410;2023-04-08T06:12:08;101377.06;;;4.85;100.00
52625;BME280;38519;52.540;13.410;2023-04-08T06:14:33;101381.63;;;4.88;100.00
52625;BME280;38519;52.540;13.410;2023-04-08T06:16:59;101378.25;;;4.80;100.00
52625;BME280;38519;52.540;13.410;2023-04-08T06:19:24;101380.69;;;4.79;100.00
52625;BME280;38519;52.540;13.410;2023-04-08T06:21:49;101383.47;;;4.89;100.00
52625;BME280;38519;52.540;13.410;2023-04-08T06:24:15;101381.97;;;4.91;100.00
52625;BME280;38519;52.540;13.410;2023-04-08T06:26:40;101385.00;;;4.87;100.00
52625;BME280;38519;52.540;13.410;2023-04-08T06:29:06;101375.13;;;4.91;100.00
52625;BME280;38519;52.540;13.410;2023-04-08T06:31:32;101381.72;;;4.97;100.00
52625;BME280;38519;52.540;13.410;2023-04-08T06:33:57;101391.69;;;5.09;100.00
52625;BME280;38519;52.540;13.410;2023-04-08T06:36:22;101396.69;;;5.08;100.00
52625;BME280;38519;52.540;13.410;2023-04-08T06:38:47;101404.50;;;5.17;100.00
52625;BME280;38519;52.540;13.410;2023-04-08T06:41:13;101403.91;;;5.19;100.00
52625;BME280;38519;52.540;13.410;2023-04-08T06:43:38;101407.41;;;5.20;100.00
52625;BME280;38519;52.540;13.410;2023-04-08T06:46:03;101410.47;;;5.16;100.00
52625;BME280;38519;52.540;13.410;2023-04-08T06:48:28;101417.00;;;5.12;100.00
52625;BME280;38519;52.540;13.410;2023-04-08T06:50:57;101420.16;;;5.09;100.00
52625;BME280;38519;52.540;13.410;2023-04-08T06:53:22;101423.44;;;5.24;100.00
52625;BME280;38519;52.540;13.410;2023-04-08T06:55:48;101430.47;;;5.25;100.00
52625;BME280;38519;52.540;13.410;2023-04-08T06:58:13;101430.06;;;5.14;100.00
52625;BME280;38519;52.540;13.410;2023-04-08T07:00:39;101431.28;;;5.33;100.00
52625;BME280;38519;52.540;13.410;2023-04-08T07:03:04;101430.16;;;5.31;100.00
52625;BME280;38519;52.540;13.410;2023-04-08T07:05:29;101434.66;;;5.41;100.00
52625;BME280;38519;52.540;13.410;2023-04-08T07:07:55;101439.81;;;5.41;100.00
52625;BME280;38519;52.540;13.410;2023-04-08T07:10:20;101428.47;;;5.47;100.00
52625;BME280;38519;52.540;13.410;2023-04-08T07:12:45;101436.25;;;5.56;100.00
52625;BME280;38519;52.540;13.410;2023-04-08T07:15:10;101431.72;;;5.62;100.00
52625;BME280;38519;52.540;13.410;2023-04-08T07:17:36;101429.44;;;5.65;100.00
52625;BME280;38519;52.540;13.410;2023-04-08T07:20:01;101436.94;;;5.71;100.00
52625;BME280;38519;52.540;13.410;2023-04-08T07:22:29;101441.38;;;5.81;100.00
52625;BME280;38519;52.540;13.410;2023-04-08T07:24:54;101453.41;;;5.72;100.00
52625;BME280;38519;52.540;13.410;2023-04-08T07:27:19;101452.16;;;5.68;100.00
52625;BME280;38519;52.540;13.410;2023-04-08T07:29:45;101450.38;;;5.76;100.00
52625;BME280;38519;52.540;13.410;2023-04-08T07:32:10;101453.66;;;5.91;100.00
52625;BME280;38519;52.540;13.410;2023-04-08T07:34:36;101458.44;;;6.04;100.00
52625;BME280;38519;52.540;13.410;2023-04-08T07:37:01;101465.06;;;6.26;100.00
52625;BME280;38519;52.540;13.410;2023-04-08T07:39:27;101462.47;;;6.35;100.00
52625;BME280;38519;52.540;13.410;2023-04-08T07:41:52;101459.72;;;6.25;100.00
52625;BME280;38519;52.540;13.410;2023-04-08T07:44:17;101463.91;;;5.98;100.00
52625;BME280;38519;52.540;13.410;2023-04-08T07:46:44;101477.38;;;6.11;100.00
52625;BME280;38519;52.540;13.410;2023-04-08T07:49:10;101471.84;;;5.99;100.00
52625;BME280;38519;52.540;13.410;2023-04-08T07:51:35;101469.94;;;5.90;100.00
52625;BME280;38519;52.540;13.410;2023-04-08T07:54:01;101475.88;;;5.89;100.00
52625;BME280;38519;52.540;13.410;2023-04-08T07:56:26;101473.38;;;5.97;100.00
52625;BME280;38519;52.540;13.410;2023-04-08T07:58:51;101475.63;;;5.94;100.00
52625;BME280;38519;52.540;13.410;2023-04-08T08:01:20;101478.63;;;6.15;100.00
52625;BME280;38519;52.540;13.410;2023-04-08T08:03:46;101478.88;;;6.09;100.00
52625;BME280;38519;52.540;13.410;2023-04-08T08:06:12;101479.78;;;6.01;100.00
52625;BME280;38519;52.540;13.410;2023-04-08T08:08:37;101484.06;;;6.00;100.00
52625;BME280;38519;52.540;13.410;2023-04-08T08:11:02;101485.34;;;6.30;100.00
52625;BME280;38519;52.540;13.410;2023-04-08T08:13:27;101480.78;;;6.28;100.00
52625;BME280;38519;52.540;13.410;2023-04-08T08:15:53;101477.63;;;6.48;100.00
52625;BME280;38519;52.540;13.410;2023-04-08T08:18:18;101475.50;;;6.52;100.00
52625;BME280;38519;52.540;13.410;2023-04-08T08:20:43;101484.06;;;6.69;100.00
52625;BME280;38519;52.540;13.410;2023-04-08T08:23:08;101487.25;;;7.01;100.00
52625;BME280;38519;52.540;13.410;2023-04-08T08:25:34;101486.97;;;6.89;100.00
52625;BME280;38519;52.540;13.410;2023-04-08T08:27:59;101491.53;;;6.83;100.00
52625;BME280;38519;52.540;13.410;2023-04-08T08:30:24;101498.88;;;6.79;100.00
52625;BME280;38519;52.540;13.410;2023-04-08T08:32:50;101500.69;;;6.88;100.00
52625;BME280;38519;52.540;13.410;2023-04-08T08:35:16;101502.53;;;7.16;100.00
52625;BME280;38519;52.540;13.410;2023-04-08T08:37:41;101511.56;;;7.10;100.00
52625;BME280;38519;52.540;13.410;2023-04-08T08:40:07;101504.25;;;7.06;100.00
52625;BME280;38519;52.540;13.410;2023-04-08T08:42:32;101512.94;;;7.07;100.00
52625;BME280;38519;52.540;13.410;2023-04-08T08:45:00;101512.00;;;6.98;100.00
52625;BME280;38519;52.540;13.410;2023-04-08T08:47:25;101510.47;;;6.73;100.00
52625;BME280;38519;52.540;13.410;2023-04-08T08:49:51;101507.28;;;6.93;100.00
52625;BME280;38519;52.540;13.410;2023-04-08T08:52:16;101510.81;;;7.11;100.00
52625;BME280;38519;52.540;13.410;2023-04-08T08:54:44;101512.75;;;7.14;100.00
52625;BME280;38519;52.540;13.410;2023-04-08T08:57:17;101510.16;;;7.40;100.00
52625;BME280;38519;52.540;13.410;2023-04-08T08:59:43;101516.69;;;7.54;100.00
52625;BME280;38519;52.540;13.410;2023-04-08T09:02:25;101517.47;;;7.44;100.00
52625;BME280;38519;52.540;13.410;2023-04-08T09:07:23;101523.03;;;7.21;100.00
52625;BME280;38519;52.540;13.410;2023-04-08T09:09:50;101525.00;;;7.33;100.00
52625;BME280;38519;52.540;13.410;2023-04-08T09:12:15;101529.41;;;7.42;100.00
52625;BME280;38519;52.540;13.410;2023-04-08T09:14:41;101535.94;;;7.74;100.00
52625;BME280;38519;52.540;13.410;2023-04-08T09:17:06;101533.00;;;7.79;100.00
52625;BME280;38519;52.540;13.410;2023-04-08T09:19:31;101537.97;;;7.33;100.00
52625;BME280;38519;52.540;13.410;2023-04-08T09:22:07;101540.34;;;7.75;100.00
52625;BME280;38519;52.540;13.410;2023-04-08T09:24:33;101547.91;;;8.08;100.00
52625;BME280;38519;52.540;13.410;2023-04-08T09:26:59;101545.34;;;7.99;100.00
52625;BME280;38519;52.540;13.410;2023-04-08T09:29:25;101554.81;;;8.35;100.00
52625;BME280;38519;52.540;13.410;2023-04-08T09:31:58;101558.19;;;8.34;100.00
52625;BME280;38519;52.540;13.410;2023-04-08T09:34:23;101561.31;;;8.58;100.00
52625;BME280;38519;52.540;13.410;2023-04-08T09:36:49;101556.03;;;8.39;100.00
52625;BME280;38519;52.540;13.410;2023-04-08T09:39:15;101565.84;;;7.88;100.00
52625;BME280;38519;52.540;13.410;2023-04-08T09:41:41;101562.56;;;7.62;100.00
52625;BME280;38519;52.540;13.410;2023-04-08T09:44:08;101561.34;;;7.41;100.00
52625;BME280;38519;52.540;13.410;2023-04-08T09:51:41;101559.19;;;8.17;100.00
52625;BME280;38519;52.540;13.410;2023-04-08T09:54:12;101558.16;;;8.15;100.00
52625;BME280;38519;52.540;13.410;2023-04-08T09:56:40;101569.53;;;8.35;100.00
52625;BME280;38519;52.540;13.410;2023-04-08T09:59:16;101563.47;;;8.17;100.00
52625;BME280;38519;52.540;13.410;2023-04-08T10:01:44;101562.09;;;7.49;100.00
52625;BME280;38519;52.540;13.410;2023-04-08T10:04:11;101568.03;;;7.65;100.00
52625;BME280;38519;52.540;13.410;2023-04-08T10:06:38;101560.88;;;7.63;100.00
52625;BME280;38519;52.540;13.410;2023-04-08T10:09:05;101567.00;;;7.72;100.00
52625;BME280;38519;52.540;13.410;2023-04-08T10:11:31;101561.59;;;8.33;100.00
52625;BME280;38519;52.540;13.410;2023-04-08T10:13:57;101569.25;;;8.68;100.00
52625;BME280;38519;52.540;13.410;2023-04-08T10:16:23;101566.91;;;8.71;100.00
52625;BME280;38519;52.540;13.410;2023-04-08T10:18:51;101570.63;;;8.92;100.00
52625;BME280;38519;52.540;13.410;2023-04-08T10:23:57;101573.66;;;8.33;100.00
52625;BME280;38519;52.540;13.410;2023-04-08T10:26:39;101575.38;;;8.69;100.00
52625;BME280;38519;52.540;13.410;2023-04-08T10:31:48;101574.66;;;9.27;100.00
52625;BME280;38519;52.540;13.410;2023-04-08T10:34:17;101563.63;;;9.59;100.00
52625;BME280;38519;52.540;13.410;2023-04-08T10:36:43;101574.13;;;9.50;100.00
52625;BME280;38519;52.540;13.410;2023-04-08T10:39:09;101567.06;;;9.68;100.00
52625;BME280;38519;52.540;13.410;2023-04-08T10:41:34;101566.41;;;9.71;100.00
52625;BME280;38519;52.540;13.410;2023-04-08T10:44:02;101567.88;;;9.77;100.00
52625;BME280;38519;52.540;13.410;2023-04-08T10:46:27;101572.16;;;10.06;100.00
52625;BME280;38519;52.540;13.410;2023-04-08T10:48:59;101574.47;;;9.93;100.00
52625;BME280;38519;52.540;13.410;2023-04-08T10:51:25;101565.78;;;9.73;100.00
52625;BME280;38519;52.540;13.410;2023-04-08T10:53:55;101571.28;;;9.47;100.00
52625;BME280;38519;52.540;13.410;2023-04-08T10:56:29;101570.13;;;9.54;100.00
52625;BME280;38519;52.540;13.410;2023-04-08T10:58:54;101568.00;;;9.50;100.00
52625;BME280;38519;52.540;13.410;2023-04-08T11:01:23;101573.59;;;10.02;100.00
52625;BME280;38519;52.540;13.410;2023-04-08T11:03:49;101571.22;;;9.66;100.00
52625;BME280;38519;52.540;13.410;2023-04-08T11:06:14;101564.13;;;10.13;100.00
52625;BME280;38519;52.540;13.410;2023-04-08T11:08:40;101570.09;;;10.02;100.00
52625;BME280;38519;52.540;13.410;2023-04-08T11:11:05;101578.75;;;10.21;100.00
52625;BME280;38519;52.540;13.410;2023-04-08T11:13:35;101571.88;;;9.93;100.00
52625;BME280;38519;52.540;13.410;2023-04-08T11:16:02;101577.09;;;9.63;100.00
52625;BME280;38519;52.540;13.410;2023-04-08T11:18:29;101573.50;;;9.82;100.00
52625;BME280;38519;52.540;13.410;2023-04-08T11:20:54;101574.00;;;10.36;100.00
52625;BME280;38519;52.540;13.410;2023-04-08T11:23:19;101576.31;;;9.94;100.00
52625;BME280;38519;52.540;13.410;2023-04-08T11:25:46;101574.53;;;9.74;100.00
52625;BME280;38519;52.540;13.410;2023-04-08T11:28:12;101575.94;;;9.70;100.00
52625;BME280;38519;52.540;13.410;2023-04-08T11:30:38;101570.22;;;9.74;100.00
52625;BME280;38519;52.540;13.410;2023-04-08T11:33:03;101571.16;;;10.14;100.00
52625;BME280;38519;52.540;13.410;2023-04-08T11:35:29;101575.25;;;9.62;100.00
52625;BME280;38519;52.540;13.410;2023-04-08T11:37:55;101579.25;;;9.78;100.00
52625;BME280;38519;52.540;13.410;2023-04-08T11:40:20;101576.84;;;9.71;100.00
52625;BME280;38519;52.540;13.410;2023-04-08T11:42:46;101578.06;;;10.14;100.00
52625;BME280;38519;52.540;13.410;2023-04-08T11:45:12;101576.66;;;10.57;100.00
52625;BME280;38519;52.540;13.410;2023-04-08T11:47:38;101578.50;;;10.79;100.00
52625;BME280;38519;52.540;13.410;2023-04-08T11:50:03;101577.53;;;10.57;100.00
52625;BME280;38519;52.540;13.410;2023-04-08T11:52:45;101582.59;;;10.06;100.00
52625;BME280;38519;52.540;13.410;2023-04-08T11:55:11;101578.19;;;10.05;100.00
52625;BME280;38519;52.540;13.410;2023-04-08T11:57:37;101576.81;;;9.90;100.00
52625;BME280;38519;52.540;13.410;2023-04-08T12:00:05;101572.47;;;9.80;100.00
52625;BME280;38519;52.540;13.410;2023-04-08T12:02:31;101580.19;;;9.89;100.00
52625;BME280;38519;52.540;13.410;2023-04-08T12:04:56;101577.34;;;9.86;100.00
52625;BME280;38519;52.540;13.410;2023-04-08T12:07:21;101572.44;;;10.09;100.00
52625;BME280;38519;52.540;13.410;2023-04-08T12:09:46;101573.25;;;10.08;100.00
52625;BME280;38519;52.540;13.410;2023-04-08T12:12:12;101570.94;;;10.32;100.00
52625;BME280;38519;52.540;13.410;2023-04-08T12:14:37;101571.75;;;10.31;100.00
52625;BME280;38519;52.540;13.410;2023-04-08T12:17:02;101573.94;;;10.66;100.00
52625;BME280;38519;52.540;13.410;2023-04-08T12:19:28;101570.00;;;11.02;100.00
52625;BME280;38519;52.540;13.410;2023-04-08T12:21:53;101574.44;;;11.13;100.00
52625;BME280;38519;52.540;13.410;2023-04-08T12:24:18;101571.06;;;11.14;100.00
52625;BME280;38519;52.540;13.410;2023-04-08T12:26:43;101579.28;;;10.98;100.00
52625;BME280;38519;52.540;13.410;2023-04-08T12:29:08;101573.94;;;11.17;100.00
52625;BME280;38519;52.540;13.410;2023-04-08T12:31:35;101574.94;;;11.29;100.00
52625;BME280;38519;52.540;13.410;2023-04-08T12:34:01;101573.66;;;10.63;100.00
52625;BME280;38519;52.540;13.410;2023-04-08T12:36:26;101568.44;;;10.73;100.00
52625;BME280;38519;52.540;13.410;2023-04-08T12:38:51;101571.03;;;10.52;100.00
52625;BME280;38519;52.540;13.410;2023-04-08T12:41:17;101576.81;;;11.00;100.00
52625;BME280;38519;52.540;13.410;2023-04-08T12:43:42;101574.00;;;11.50;100.00
52625;BME280;38519;52.540;13.410;2023-04-08T12:46:07;101573.09;;;11.92;100.00
52625;BME280;38519;52.540;13.410;2023-04-08T12:48:32;101571.97;;;12.32;100.00
52625;BME280;38519;52.540;13.410;2023-04-08T12:50:58;101578.59;;;12.61;98.66
52625;BME280;38519;52.540;13.410;2023-04-08T12:53:23;101576.78;;;11.73;100.00